sensor_id;sensor_type;location;lat;lon;timestamp;P1;durP1;ratioP1;P2;durP2;ratioP2
11000;SDS011;5553;48.506;8.870;2023-07-24T00:00:43;12.93;;;8.17;;
11000;SDS011;5553;48.506;8.870;2023-07-24T00:03:12;11.03;;;6.70;;
11000;SDS011;5553;48.506;8.870;2023-07-24T00:05:42;12.53;;;7.43;;
11000;SDS011;5553;48.506;8.870;2023-07-24T00:08:11;12.27;;;6.93;;
11000;SDS011;5553;48.506;8.870;2023-07-24T00:10:39;13.93;;;7.77;;
11000;SDS011;5553;48.506;8.870;2023-07-24T00:13:07;12.90;;;8.37;;
11000;SDS011;5553;48.506;8.870;2023-07-24T00:15:38;13.60;;;8.00;;
11000;SDS011;5553;48.506;8.870;2023-07-24T00:18:06;17.93;;;8.50;;
11000;SDS011;5553;48.506;8.870;2023-07-24T00:20:34;11.17;;;7.80;;
11000;SDS011;5553;48.506;8.870;2023-07-24T00:23:05;10.97;;;7.40;;
11000;SDS011;5553;48.506;8.870;2023-07-24T00:25:33;12.30;;;7.70;;
11000;SDS011;5553;48.506;8.870;2023-07-24T00:28:02;12.17;;;8.30;;
11000;SDS011;5553;48.506;8.870;2023-07-24T00:30:30;10.73;;;7.40;;
11000;SDS011;5553;48.506;8.870;2023-07-24T00:32:59;10.93;;;7.30;;
11000;SDS011;5553;48.506;8.870;2023-07-24T00:35:27;13.70;;;8.97;;
11000;SDS011;5553;48.506;8.870;2023-07-24T00:37:55;11.90;;;7.97;;
11000;SDS011;5553;48.506;8.870;2023-07-24T00:40:26;12.57;;;7.70;;
11000;SDS011;5553;48.506;8.870;2023-07-24T00:42:54;13.67;;;8.33;;
11000;SDS011;5553;48.506;8.870;2023-07-24T00:45:22;12.60;;;8.43;;
11000;SDS011;5553;48.506;8.870;2023-07-24T00:47:51;11.43;;;8.30;;
11000;SDS011;5553;48.506;8.870;2023-07-24T00:50:20;11.27;;;7.80;;
11000;SDS011;5553;48.506;8.870;2023-07-24T00:52:49;10.73;;;8.07;;
11000;SDS011;5553;48.506;8.870;2023-07-24T00:55:17;9.47;;;7.27;;
11000;SDS011;5553;48.506;8.870;2023-07-24T00:57:48;11.93;;;7.60;;
11000;SDS011;5553;48.506;8.870;2023-07-24T01:00:17;13.10;;;8.40;;
11000;SDS011;5553;48.506;8.870;2023-07-24T01:02:46;12.60;;;8.47;;
11000;SDS011;5553;48.506;8.870;2023-07-24T01:05:14;16.07;;;9.17;;
11000;SDS011;5553;48.506;8.870;2023-07-24T01:07:44;13.20;;;8.43;;
11000;SDS011;5553;48.506;8.870;2023-07-24T01:10:12;12.50;;;8.70;;
11000;SDS011;5553;48.506;8.870;2023-07-24T01:12:43;12.57;;;7.93;;
11000;SDS011;5553;48.506;8.870;2023-07-24T01:15:19;11.80;;;8.00;;
11000;SDS011;5553;48.506;8.870;2023-07-24T01:17:54;12.03;;;8.10;;
11000;SDS011;5553;48.506;8.870;2023-07-24T01:20:27;10.73;;;7.27;;
11000;SDS011;5553;48.506;8.870;2023-07-24T01:23:03;12.23;;;8.10;;
11000;SDS011;5553;48.506;8.870;2023-07-24T01:25:50;17.60;;;7.50;;
11000;SDS011;5553;48.506;8.870;2023-07-24T01:28:21;13.60;;;8.03;;
11000;SDS011;5553;48.506;8.870;2023-07-24T01:30:50;12.70;;;7.73;;
11000;SDS011;5553;48.506;8.870;2023-07-24T01:33:18;12.40;;;8.37;;
11000;SDS011;5553;48.506;8.870;2023-07-24T01:35:47;10.87;;;7.90;;
11000;SDS011;5553;48.506;8.870;2023-07-24T01:38:18;13.30;;;7.40;;
11000;SDS011;5553;48.506;8.870;2023-07-24T01:40:49;15.67;;;9.17;;
11000;SDS011;5553;48.506;8.870;2023-07-24T01:43:19;22.90;;;10.00;;
11000;SDS011;5553;48.506;8.870;2023-07-24T01:45:48;12.30;;;8.27;;
11000;SDS011;5553;48.506;8.870;2023-07-24T01:48:16;12.90;;;9.53;;
11000;SDS011;5553;48.506;8.870;2023-07-24T01:50:44;14.40;;;9.20;;
11000;SDS011;5553;48.506;8.870;2023-07-24T01:53:12;14.53;;;8.83;;
11000;SDS011;5553;48.506;8.870;2023-07-24T01:55:41;13.20;;;8.20;;
11000;SDS011;5553;48.506;8.870;2023-07-24T01:58:12;12.80;;;8.30;;
11000;SDS011;5553;48.506;8.870;2023-07-24T02:00:40;12.10;;;9.17;;
11000;SDS011;5553;48.506;8.870;2023-07-24T02:03:09;15.73;;;9.40;;
11000;SDS011;5553;48.506;8.870;2023-07-24T02:05:38;13.63;;;9.23;;
11000;SDS011;5553;48.506;8.870;2023-07-24T02:08:06;13.80;;;8.70;;
11000;SDS011;5553;48.506;8.870;2023-07-24T02:10:36;13.07;;;9.07;;
11000;SDS011;5553;48.506;8.870;2023-07-24T02:13:04;19.40;;;9.20;;
11000;SDS011;5553;48.506;8.870;2023-07-24T02:15:37;15.50;;;9.10;;
11000;SDS011;5553;48.506;8.870;2023-07-24T02:18:05;13.77;;;7.90;;
11000;SDS011;5553;48.506;8.870;2023-07-24T02:20:33;12.80;;;8.27;;
11000;SDS011;5553;48.506;8.870;2023-07-24T02:23:02;13.23;;;8.60;;
11000;SDS011;5553;48.506;8.870;2023-07-24T02:25:30;16.93;;;9.77;;
11000;SDS011;5553;48.506;8.870;2023-07-24T02:27:58;14.60;;;8.90;;
11000;SDS011;5553;48.506;8.870;2023-07-24T02:30:27;12.80;;;8.90;;
11000;SDS011;5553;48.506;8.870;2023-07-24T02:32:57;11.10;;;7.50;;
11000;SDS011;5553;48.506;8.870;2023-07-24T02:35:26;10.60;;;8.43;;
11000;SDS011;5553;48.506;8.870;2023-07-24T02:37:54;13.23;;;9.10;;
11000;SDS011;5553;48.506;8.870;2023-07-24T02:40:22;14.77;;;8.47;;
11000;SDS011;5553;48.506;8.870;2023-07-24T02:42:50;15.03;;;8.90;;
11000;SDS011;5553;48.506;8.870;2023-07-24T02:45:19;13.03;;;8.10;;
11000;SDS011;5553;48.506;8.870;2023-07-24T02:47:47;12.70;;;8.80;;
11000;SDS011;5553;48.506;8.870;2023-07-24T02:50:18;13.20;;;8.10;;
11000;SDS011;5553;48.506;8.870;2023-07-24T02:52:46;13.53;;;8.33;;
11000;SDS011;5553;48.506;8.870;2023-07-24T02:55:14;15.00;;;8.13;;
11000;SDS011;5553;48.506;8.870;2023-07-24T03:00:12;12.13;;;8.13;;
11000;SDS011;5553;48.506;8.870;2023-07-24T03:02:45;15.40;;;8.40;;
11000;SDS011;5553;48.506;8.870;2023-07-24T03:05:13;14.10;;;8.23;;
11000;SDS011;5553;48.506;8.870;2023-07-24T03:07:44;13.20;;;8.50;;
11000;SDS011;5553;48.506;8.870;2023-07-24T03:10:12;12.10;;;8.10;;
11000;SDS011;5553;48.506;8.870;2023-07-24T03:12:41;16.07;;;9.73;;
11000;SDS011;5553;48.506;8.870;2023-07-24T03:15:12;13.47;;;8.03;;
11000;SDS011;5553;48.506;8.870;2023-07-24T03:17:40;11.03;;;7.90;;
11000;SDS011;5553;48.506;8.870;2023-07-24T03:20:09;14.60;;;8.13;;
11000;SDS011;5553;48.506;8.870;2023-07-24T03:22:38;12.23;;;8.80;;
11000;SDS011;5553;48.506;8.870;2023-07-24T03:25:13;14.30;;;8.00;;
11000;SDS011;5553;48.506;8.870;2023-07-24T03:27:41;13.90;;;8.67;;
11000;SDS011;5553;48.506;8.870;2023-07-24T03:30:10;15.97;;;8.93;;
11000;SDS011;5553;48.506;8.870;2023-07-24T03:32:38;12.07;;;8.40;;
11000;SDS011;5553;48.506;8.870;2023-07-24T03:35:07;13.30;;;9.13;;
11000;SDS011;5553;48.506;8.870;2023-07-24T03:37:38;13.00;;;8.53;;
11000;SDS011;5553;48.506;8.870;2023-07-24T03:40:09;13.90;;;9.30;;
11000;SDS011;5553;48.506;8.870;2023-07-24T03:42:39;15.00;;;9.47;;
11000;SDS011;5553;48.506;8.870;2023-07-24T03:45:07;17.20;;;9.40;;
11000;SDS011;5553;48.506;8.870;2023-07-24T03:47:36;14.73;;;8.93;;
11000;SDS011;5553;48.506;8.870;2023-07-24T03:50:08;13.53;;;9.80;;
11000;SDS011;5553;48.506;8.870;2023-07-24T03:52:37;12.57;;;8.27;;
11000;SDS011;5553;48.506;8.870;2023-07-24T03:55:06;14.60;;;8.43;;
11000;SDS011;5553;48.506;8.870;2023-07-24T03:57:37;16.50;;;9.20;;
11000;SDS011;5553;48.506;8.870;2023-07-24T04:00:08;15.90;;;9.50;;
11000;SDS011;5553;48.506;8.870;2023-07-24T04:02:44;15.00;;;9.97;;
11000;SDS011;5553;48.506;8.870;2023-07-24T04:05:12;16.67;;;9.30;;
11000;SDS011;5553;48.506;8.870;2023-07-24T04:07:41;16.47;;;9.03;;
11000;SDS011;5553;48.506;8.870;2023-07-24T04:10:12;16.23;;;10.17;;
11000;SDS011;5553;48.506;8.870;2023-07-24T04:12:40;15.43;;;9.20;;
11000;SDS011;5553;48.506;8.870;2023-07-24T04:15:13;11.87;;;8.13;;
11000;SDS011;5553;48.506;8.870;2023-07-24T04:17:42;14.40;;;9.60;;
11000;SDS011;5553;48.506;8.870;2023-07-24T04:20:10;15.90;;;9.30;;
11000;SDS011;5553;48.506;8.870;2023-07-24T04:22:43;14.43;;;9.40;;
11000;SDS011;5553;48.506;8.870;2023-07-24T04:25:14;19.27;;;9.57;;
11000;SDS011;5553;48.506;8.870;2023-07-24T04:27:43;13.60;;;8.63;;
11000;SDS011;5553;48.506;8.870;2023-07-24T04:30:11;14.17;;;8.97;;
11000;SDS011;5553;48.506;8.870;2023-07-24T04:32:39;16.60;;;9.60;;
11000;SDS011;5553;48.506;8.870;2023-07-24T04:35:08;11.83;;;8.20;;
11000;SDS011;5553;48.506;8.870;2023-07-24T04:37:36;10.90;;;7.83;;
11000;SDS011;5553;48.506;8.870;2023-07-24T04:40:05;13.93;;;8.90;;
11000;SDS011;5553;48.506;8.870;2023-07-24T04:42:38;12.90;;;7.83;;
11000;SDS011;5553;48.506;8.870;2023-07-24T04:45:06;12.57;;;8.10;;
11000;SDS011;5553;48.506;8.870;2023-07-24T04:47:36;12.73;;;8.30;;
11000;SDS011;5553;48.506;8.870;2023-07-24T04:50:05;13.27;;;8.80;;
11000;SDS011;5553;48.506;8.870;2023-07-24T04:52:33;14.60;;;8.60;;
11000;SDS011;5553;48.506;8.870;2023-07-24T04:55:02;13.27;;;8.87;;
11000;SDS011;5553;48.506;8.870;2023-07-24T04:57:31;14.13;;;9.27;;
11000;SDS011;5553;48.506;8.870;2023-07-24T05:00:02;14.77;;;9.17;;
11000;SDS011;5553;48.506;8.870;2023-07-24T05:02:32;17.37;;;10.30;;
11000;SDS011;5553;48.506;8.870;2023-07-24T05:05:00;12.10;;;9.07;;
11000;SDS011;5553;48.506;8.870;2023-07-24T05:07:28;13.33;;;8.97;;
11000;SDS011;5553;48.506;8.870;2023-07-24T05:09:57;15.73;;;10.60;;
11000;SDS011;5553;48.506;8.870;2023-07-24T05:12:25;13.67;;;9.10;;
11000;SDS011;5553;48.506;8.870;2023-07-24T05:14:51;13.60;;;9.60;;
11000;SDS011;5553;48.506;8.870;2023-07-24T05:17:22;12.90;;;8.00;;
11000;SDS011;5553;48.506;8.870;2023-07-24T05:19:50;13.30;;;9.40;;
11000;SDS011;5553;48.506;8.870;2023-07-24T05:22:18;16.07;;;9.67;;
11000;SDS011;5553;48.506;8.870;2023-07-24T05:24:47;15.60;;;8.73;;
11000;SDS011;5553;48.506;8.870;2023-07-24T05:27:15;11.80;;;7.90;;
11000;SDS011;5553;48.506;8.870;2023-07-24T05:29:43;13.50;;;9.40;;
11000;SDS011;5553;48.506;8.870;2023-07-24T05:32:11;13.73;;;9.83;;
11000;SDS011;5553;48.506;8.870;2023-07-24T05:34:42;14.03;;;9.40;;
11000;SDS011;5553;48.506;8.870;2023-07-24T05:37:10;15.00;;;9.77;;
11000;SDS011;5553;48.506;8.870;2023-07-24T05:39:39;14.97;;;9.80;;
11000;SDS011;5553;48.506;8.870;2023-07-24T05:42:07;12.53;;;8.30;;
11000;SDS011;5553;48.506;8.870;2023-07-24T05:44:35;13.97;;;9.40;;
11000;SDS011;5553;48.506;8.870;2023-07-24T05:47:04;14.43;;;8.97;;
11000;SDS011;5553;48.506;8.870;2023-07-24T05:49:32;16.33;;;10.20;;
11000;SDS011;5553;48.506;8.870;2023-07-24T05:52:03;14.63;;;9.87;;
11000;SDS011;5553;48.506;8.870;2023-07-24T05:54:32;16.77;;;10.37;;
11000;SDS011;5553;48.506;8.870;2023-07-24T05:57:00;13.93;;;9.30;;
11000;SDS011;5553;48.506;8.870;2023-07-24T05:59:28;16.50;;;10.20;;
11000;SDS011;5553;48.506;8.870;2023-07-24T06:01:56;12.60;;;9.50;;
11000;SDS011;5553;48.506;8.870;2023-07-24T06:04:25;16.07;;;10.53;;
11000;SDS011;5553;48.506;8.870;2023-07-24T06:06:53;13.70;;;9.20;;
11000;SDS011;5553;48.506;8.870;2023-07-24T06:09:24;15.17;;;9.80;;
11000;SDS011;5553;48.506;8.870;2023-07-24T06:11:52;14.83;;;9.50;;
11000;SDS011;5553;48.506;8.870;2023-07-24T06:14:20;15.87;;;9.07;;
11000;SDS011;5553;48.506;8.870;2023-07-24T06:16:49;13.97;;;9.20;;
11000;SDS011;5553;48.506;8.870;2023-07-24T06:19:17;16.43;;;9.53;;
11000;SDS011;5553;48.506;8.870;2023-07-24T06:21:46;14.53;;;9.67;;
11000;SDS011;5553;48.506;8.870;2023-07-24T06:24:14;13.50;;;9.40;;
11000;SDS011;5553;48.506;8.870;2023-07-24T06:26:45;16.63;;;9.07;;
11000;SDS011;5553;48.506;8.870;2023-07-24T06:29:14;13.77;;;9.67;;
11000;SDS011;5553;48.506;8.870;2023-07-24T06:31:42;16.23;;;10.90;;
11000;SDS011;5553;48.506;8.870;2023-07-24T06:34:10;12.63;;;9.40;;
11000;SDS011;5553;48.506;8.870;2023-07-24T06:36:39;16.03;;;8.70;;
11000;SDS011;5553;48.506;8.870;2023-07-24T06:39:07;12.17;;;8.33;;
11000;SDS011;5553;48.506;8.870;2023-07-24T06:41:35;12.13;;;8.83;;
11000;SDS011;5553;48.506;8.870;2023-07-24T06:44:06;13.63;;;9.17;;
11000;SDS011;5553;48.506;8.870;2023-07-24T06:46:34;13.90;;;8.37;;
11000;SDS011;5553;48.506;8.870;2023-07-24T06:49:02;17.13;;;11.13;;
11000;SDS011;5553;48.506;8.870;2023-07-24T06:51:31;14.43;;;9.90;;
11000;SDS011;5553;48.506;8.870;2023-07-24T06:53:59;13.17;;;9.50;;
11000;SDS011;5553;48.506;8.870;2023-07-24T06:56:27;14.00;;;9.27;;
11000;SDS011;5553;48.506;8.870;2023-07-24T06:58:56;17.10;;;10.70;;
11000;SDS011;5553;48.506;8.870;2023-07-24T07:01:27;20.20;;;9.97;;
11000;SDS011;5553;48.506;8.870;2023-07-24T07:03:55;19.37;;;11.27;;
11000;SDS011;5553;48.506;8.870;2023-07-24T07:06:23;21.07;;;9.30;;
11000;SDS011;5553;48.506;8.870;2023-07-24T07:08:51;13.13;;;9.30;;
11000;SDS011;5553;48.506;8.870;2023-07-24T07:11:20;14.30;;;8.83;;
11000;SDS011;5553;48.506;8.870;2023-07-24T07:13:48;12.33;;;9.03;;
11000;SDS011;5553;48.506;8.870;2023-07-24T07:16:16;12.30;;;10.17;;
11000;SDS011;5553;48.506;8.870;2023-07-24T07:18:47;13.77;;;8.47;;
11000;SDS011;5553;48.506;8.870;2023-07-24T07:21:15;10.50;;;7.57;;
11000;SDS011;5553;48.506;8.870;2023-07-24T07:23:43;15.20;;;9.97;;
11000;SDS011;5553;48.506;8.870;2023-07-24T07:26:12;13.23;;;8.10;;
11000;SDS011;5553;48.506;8.870;2023-07-24T07:28:40;11.57;;;8.43;;
11000;SDS011;5553;48.506;8.870;2023-07-24T07:31:09;14.40;;;8.43;;
11000;SDS011;5553;48.506;8.870;2023-07-24T07:33:38;12.80;;;9.77;;
11000;SDS011;5553;48.506;8.870;2023-07-24T07:36:09;15.20;;;9.20;;
11000;SDS011;5553;48.506;8.870;2023-07-24T07:38:37;15.03;;;8.67;;
11000;SDS011;5553;48.506;8.870;2023-07-24T07:41:05;14.33;;;9.00;;
11000;SDS011;5553;48.506;8.870;2023-07-24T07:43:34;13.97;;;9.60;;
11000;SDS011;5553;48.506;8.870;2023-07-24T07:46:04;17.33;;;8.23;;
11000;SDS011;5553;48.506;8.870;2023-07-24T07:48:32;14.33;;;9.10;;
11000;SDS011;5553;48.506;8.870;2023-07-24T07:51:00;19.13;;;9.97;;
11000;SDS011;5553;48.506;8.870;2023-07-24T07:53:31;14.70;;;9.10;;
11000;SDS011;5553;48.506;8.870;2023-07-24T07:55:59;16.50;;;8.90;;
11000;SDS011;5553;48.506;8.870;2023-07-24T07:58:27;11.27;;;7.77;;
11000;SDS011;5553;48.506;8.870;2023-07-24T08:00:56;5.77;;;4.83;;
11000;SDS011;5553;48.506;8.870;2023-07-24T08:03:24;7.33;;;4.87;;
11000;SDS011;5553;48.506;8.870;2023-07-24T08:05:56;8.80;;;5.43;;
11000;SDS011;5553;48.506;8.870;2023-07-24T08:08:24;8.93;;;5.07;;
11000;SDS011;5553;48.506;8.870;2023-07-24T08:10:55;6.70;;;4.83;;
11000;SDS011;5553;48.506;8.870;2023-07-24T08:13:23;6.63;;;4.33;;
11000;SDS011;5553;48.506;8.870;2023-07-24T08:15:52;7.43;;;4.80;;
11000;SDS011;5553;48.506;8.870;2023-07-24T08:18:20;8.13;;;5.43;;
11000;SDS011;5553;48.506;8.870;2023-07-24T13:55:30;5.27;;;4.17;;
11000;SDS011;5553;48.506;8.870;2023-07-24T13:58:00;5.83;;;4.50;;
11000;SDS011;5553;48.506;8.870;2023-07-24T14:00:31;5.77;;;4.63;;
11000;SDS011;5553;48.506;8.870;2023-07-24T14:03:00;4.53;;;3.83;;
11000;SDS011;5553;48.506;8.870;2023-07-24T14:05:28;5.23;;;3.70;;
11000;SDS011;5553;48.506;8.870;2023-07-24T14:07:59;5.43;;;4.17;;
11000;SDS011;5553;48.506;8.870;2023-07-24T14:10:31;5.50;;;3.80;;
11000;SDS011;5553;48.506;8.870;2023-07-24T14:12:59;5.47;;;4.17;;
11000;SDS011;5553;48.506;8.870;2023-07-24T14:15:28;5.60;;;4.00;;
11000;SDS011;5553;48.506;8.870;2023-07-24T14:17:57;6.60;;;4.50;;
11000;SDS011;5553;48.506;8.870;2023-07-24T14:20:29;5.27;;;4.53;;
11000;SDS011;5553;48.506;8.870;2023-07-24T14:23:01;4.87;;;3.60;;
11000;SDS011;5553;48.506;8.870;2023-07-24T14:25:32;5.40;;;4.47;;
11000;SDS011;5553;48.506;8.870;2023-07-24T14:28:01;5.70;;;3.93;;
11000;SDS011;5553;48.506;8.870;2023-07-24T14:30:29;6.20;;;3.77;;
11000;SDS011;5553;48.506;8.870;2023-07-24T14:32:58;4.60;;;3.93;;
11000;SDS011;5553;48.506;8.870;2023-07-24T14:35:26;5.40;;;4.23;;
11000;SDS011;5553;48.506;8.870;2023-07-24T14:37:57;5.67;;;3.97;;
11000;SDS011;5553;48.506;8.870;2023-07-24T14:40:26;4.40;;;4.00;;
11000;SDS011;5553;48.506;8.870;2023-07-24T14:42:59;4.50;;;4.07;;
11000;SDS011;5553;48.506;8.870;2023-07-24T14:45:27;5.23;;;3.83;;
11000;SDS011;5553;48.506;8.870;2023-07-24T14:47:59;3.93;;;3.10;;
11000;SDS011;5553;48.506;8.870;2023-07-24T14:50:30;5.57;;;4.03;;
11000;SDS011;5553;48.506;8.870;2023-07-24T14:53:00;5.30;;;3.53;;
11000;SDS011;5553;48.506;8.870;2023-07-24T14:55:28;4.10;;;3.43;;
11000;SDS011;5553;48.506;8.870;2023-07-24T14:57:59;5.17;;;3.97;;
11000;SDS011;5553;48.506;8.870;2023-07-24T15:00:36;4.17;;;3.77;;
11000;SDS011;5553;48.506;8.870;2023-07-24T15:03:05;5.07;;;4.40;;
11000;SDS011;5553;48.506;8.870;2023-07-24T15:05:33;3.93;;;3.53;;
11000;SDS011;5553;48.506;8.870;2023-07-24T15:08:04;4.93;;;3.77;;
11000;SDS011;5553;48.506;8.870;2023-07-24T15:10:35;5.87;;;4.23;;
11000;SDS011;5553;48.506;8.870;2023-07-24T15:13:06;5.27;;;4.10;;
11000;SDS011;5553;48.506;8.870;2023-07-24T15:15:37;5.90;;;4.07;;
11000;SDS011;5553;48.506;8.870;2023-07-24T15:18:05;6.27;;;4.00;;
11000;SDS011;5553;48.506;8.870;2023-07-24T15:20:33;6.10;;;4.27;;
11000;SDS011;5553;48.506;8.870;2023-07-24T15:23:02;5.43;;;4.23;;
11000;SDS011;5553;48.506;8.870;2023-07-24T15:25:30;5.63;;;3.50;;
11000;SDS011;5553;48.506;8.870;2023-07-24T15:28:00;5.90;;;4.43;;
11000;SDS011;5553;48.506;8.870;2023-07-24T15:30:31;6.10;;;4.33;;
11000;SDS011;5553;48.506;8.870;2023-07-24T15:33:00;6.70;;;5.33;;
11000;SDS011;5553;48.506;8.870;2023-07-24T15:35:31;6.40;;;4.33;;
11000;SDS011;5553;48.506;8.870;2023-07-24T15:38:02;4.57;;;3.67;;
11000;SDS011;5553;48.506;8.870;2023-07-24T15:40:31;5.50;;;4.17;;
11000;SDS011;5553;48.506;8.870;2023-07-24T15:42:59;5.67;;;4.97;;
11000;SDS011;5553;48.506;8.870;2023-07-24T15:45:32;5.43;;;4.70;;
11000;SDS011;5553;48.506;8.870;2023-07-24T15:48:12;5.87;;;4.83;;
11000;SDS011;5553;48.506;8.870;2023-07-24T15:50:41;5.47;;;4.80;;
11000;SDS011;5553;48.506;8.870;2023-07-24T15:53:09;6.37;;;5.13;;
11000;SDS011;5553;48.506;8.870;2023-07-24T15:55:39;5.90;;;4.30;;
11000;SDS011;5553;48.506;8.870;2023-07-24T15:58:10;5.83;;;4.40;;
11000;SDS011;5553;48.506;8.870;2023-07-24T16:00:41;7.20;;;4.67;;
11000;SDS011;5553;48.506;8.870;2023-07-24T16:03:12;7.23;;;5.53;;
11000;SDS011;5553;48.506;8.870;2023-07-24T16:05:43;7.77;;;5.50;;
11000;SDS011;5553;48.506;8.870;2023-07-24T16:08:15;7.03;;;5.63;;
11000;SDS011;5553;48.506;8.870;2023-07-24T16:10:46;7.90;;;5.10;;
11000;SDS011;5553;48.506;8.870;2023-07-24T16:13:14;6.73;;;4.87;;
11000;SDS011;5553;48.506;8.870;2023-07-24T16:15:45;8.17;;;6.50;;
11000;SDS011;5553;48.506;8.870;2023-07-24T16:18:14;9.47;;;5.13;;
11000;SDS011;5553;48.506;8.870;2023-07-24T16:20:49;6.93;;;5.27;;
11000;SDS011;5553;48.506;8.870;2023-07-24T16:23:17;8.30;;;5.27;;
11000;SDS011;5553;48.506;8.870;2023-07-24T16:25:46;6.57;;;5.63;;
11000;SDS011;5553;48.506;8.870;2023-07-24T16:28:14;8.07;;;4.90;;
11000;SDS011;5553;48.506;8.870;2023-07-24T16:30:45;7.90;;;5.87;;
11000;SDS011;5553;48.506;8.870;2023-07-24T16:33:17;6.57;;;5.00;;
11000;SDS011;5553;48.506;8.870;2023-07-24T16:35:47;7.50;;;5.53;;
11000;SDS011;5553;48.506;8.870;2023-07-24T16:38:16;6.90;;;5.03;;
11000;SDS011;5553;48.506;8.870;2023-07-24T16:40:44;6.50;;;5.40;;
11000;SDS011;5553;48.506;8.870;2023-07-24T16:43:16;6.00;;;4.83;;
11000;SDS011;5553;48.506;8.870;2023-07-24T16:45:49;5.83;;;5.23;;
11000;SDS011;5553;48.506;8.870;2023-07-24T16:48:17;5.30;;;4.57;;
11000;SDS011;5553;48.506;8.870;2023-07-24T16:50:46;5.73;;;4.50;;
11000;SDS011;5553;48.506;8.870;2023-07-24T16:53:16;7.83;;;5.20;;
11000;SDS011;5553;48.506;8.870;2023-07-24T16:55:49;6.00;;;4.50;;
11000;SDS011;5553;48.506;8.870;2023-07-24T16:58:17;7.13;;;4.93;;
11000;SDS011;5553;48.506;8.870;2023-07-24T17:00:48;5.83;;;4.33;;
11000;SDS011;5553;48.506;8.870;2023-07-24T17:03:28;5.57;;;4.40;;
11000;SDS011;5553;48.506;8.870;2023-07-24T17:05:57;8.03;;;4.47;;
11000;SDS011;5553;48.506;8.870;2023-07-24T17:08:25;7.20;;;5.27;;
11000;SDS011;5553;48.506;8.870;2023-07-24T17:10:56;4.30;;;3.90;;
11000;SDS011;5553;48.506;8.870;2023-07-24T17:13:24;6.00;;;4.97;;
11000;SDS011;5553;48.506;8.870;2023-07-24T17:15:55;5.90;;;4.87;;
11000;SDS011;5553;48.506;8.870;2023-07-24T17:18:23;6.17;;;4.70;;
11000;SDS011;5553;48.506;8.870;2023-07-24T17:20:55;6.30;;;4.57;;
11000;SDS011;5553;48.506;8.870;2023-07-24T17:23:23;6.60;;;4.77;;
11000;SDS011;5553;48.506;8.870;2023-07-24T17:25:55;8.50;;;4.27;;
11000;SDS011;5553;48.506;8.870;2023-07-24T17:28:27;5.37;;;4.13;;
11000;SDS011;5553;48.506;8.870;2023-07-24T17:30:58;5.40;;;4.10;;
11000;SDS011;5553;48.506;8.870;2023-07-24T17:33:26;5.40;;;3.60;;
11000;SDS011;5553;48.506;8.870;2023-07-24T17:35:56;5.20;;;3.40;;
11000;SDS011;5553;48.506;8.870;2023-07-24T17:38:25;3.83;;;3.43;;
11000;SDS011;5553;48.506;8.870;2023-07-24T17:40:55;5.20;;;3.30;;
11000;SDS011;5553;48.506;8.870;2023-07-24T17:43:28;3.87;;;3.10;;
11000;SDS011;5553;48.506;8.870;2023-07-24T17:45:59;5.03;;;3.80;;
11000;SDS011;5553;48.506;8.870;2023-07-24T17:48:27;4.40;;;3.40;;
11000;SDS011;5553;48.506;8.870;2023-07-24T17:50:56;4.37;;;3.30;;
11000;SDS011;5553;48.506;8.870;2023-07-24T17:53:26;3.30;;;2.80;;
11000;SDS011;5553;48.506;8.870;2023-07-24T17:55:55;3.20;;;2.77;;
11000;SDS011;5553;48.506;8.870;2023-07-24T17:58:23;3.27;;;2.67;;
11000;SDS011;5553;48.506;8.870;2023-07-24T18:00:52;3.37;;;2.80;;
11000;SDS011;5553;48.506;8.870;2023-07-24T18:03:23;5.40;;;3.57;;
11000;SDS011;5553;48.506;8.870;2023-07-24T18:05:51;5.33;;;3.43;;
11000;SDS011;5553;48.506;8.870;2023-07-24T18:08:21;4.70;;;2.70;;
11000;SDS011;5553;48.506;8.870;2023-07-24T18:10:49;4.03;;;2.93;;
11000;SDS011;5553;48.506;8.870;2023-07-24T18:13:17;3.27;;;2.97;;
11000;SDS011;5553;48.506;8.870;2023-07-24T18:15:47;4.73;;;3.00;;
11000;SDS011;5553;48.506;8.870;2023-07-24T18:18:15;3.53;;;3.17;;
11000;SDS011;5553;48.506;8.870;2023-07-24T18:20:46;5.90;;;3.40;;
11000;SDS011;5553;48.506;8.870;2023-07-24T18:23:14;4.63;;;3.50;;
11000;SDS011;5553;48.506;8.870;2023-07-24T18:25:42;3.20;;;2.67;;
11000;SDS011;5553;48.506;8.870;2023-07-24T18:28:11;3.23;;;2.73;;
11000;SDS011;5553;48.506;8.870;2023-07-24T18:30:41;3.17;;;2.87;;
11000;SDS011;5553;48.506;8.870;2023-07-24T18:33:09;3.20;;;2.80;;
11000;SDS011;5553;48.506;8.870;2023-07-24T18:35:37;3.00;;;2.70;;
11000;SDS011;5553;48.506;8.870;2023-07-24T18:38:08;4.37;;;3.20;;
11000;SDS011;5553;48.506;8.870;2023-07-24T18:40:37;4.73;;;3.30;;
11000;SDS011;5553;48.506;8.870;2023-07-24T18:43:05;3.07;;;2.77;;
11000;SDS011;5553;48.506;8.870;2023-07-24T18:45:33;4.53;;;2.97;;
11000;SDS011;5553;48.506;8.870;2023-07-24T18:48:02;3.33;;;2.97;;
11000;SDS011;5553;48.506;8.870;2023-07-24T18:50:32;3.37;;;2.90;;
11000;SDS011;5553;48.506;8.870;2023-07-24T18:53:00;3.37;;;2.93;;
11000;SDS011;5553;48.506;8.870;2023-07-24T18:55:31;5.77;;;3.20;;
11000;SDS011;5553;48.506;8.870;2023-07-24T18:57:59;3.90;;;3.20;;
11000;SDS011;5553;48.506;8.870;2023-07-24T19:00:27;4.23;;;3.20;;
11000;SDS011;5553;48.506;8.870;2023-07-24T19:02:56;3.53;;;3.23;;
11000;SDS011;5553;48.506;8.870;2023-07-24T19:05:24;4.10;;;3.10;;
11000;SDS011;5553;48.506;8.870;2023-07-24T19:07:52;2.97;;;2.67;;
11000;SDS011;5553;48.506;8.870;2023-07-24T19:10:21;4.67;;;2.70;;
11000;SDS011;5553;48.506;8.870;2023-07-24T19:12:52;4.50;;;3.23;;
11000;SDS011;5553;48.506;8.870;2023-07-24T19:15:20;7.20;;;3.00;;
11000;SDS011;5553;48.506;8.870;2023-07-24T19:17:48;3.30;;;3.00;;
11000;SDS011;5553;48.506;8.870;2023-07-24T19:20:17;3.53;;;2.97;;
11000;SDS011;5553;48.506;8.870;2023-07-24T19:22:45;4.23;;;3.13;;
11000;SDS011;5553;48.506;8.870;2023-07-24T19:25:13;4.30;;;2.73;;
11000;SDS011;5553;48.506;8.870;2023-07-24T19:27:42;3.20;;;2.83;;
11000;SDS011;5553;48.506;8.870;2023-07-24T19:30:13;4.40;;;3.60;;
11000;SDS011;5553;48.506;8.870;2023-07-24T19:32:41;5.50;;;3.20;;
11000;SDS011;5553;48.506;8.870;2023-07-24T19:35:10;3.73;;;2.90;;
11000;SDS011;5553;48.506;8.870;2023-07-24T19:37:38;3.10;;;2.70;;
11000;SDS011;5553;48.506;8.870;2023-07-24T19:40:07;4.20;;;2.87;;
11000;SDS011;5553;48.506;8.870;2023-07-24T19:42:36;3.67;;;3.00;;
11000;SDS011;5553;48.506;8.870;2023-07-24T19:45:05;5.43;;;3.93;;
11000;SDS011;5553;48.506;8.870;2023-07-24T19:47:37;3.10;;;2.80;;
11000;SDS011;5553;48.506;8.870;2023-07-24T19:50:05;3.20;;;2.90;;
11000;SDS011;5553;48.506;8.870;2023-07-24T19:52:34;3.50;;;2.67;;
11000;SDS011;5553;48.506;8.870;2023-07-24T19:55:02;3.63;;;2.60;;
11000;SDS011;5553;48.506;8.870;2023-07-24T19:57:31;4.10;;;3.40;;
11000;SDS011;5553;48.506;8.870;2023-07-24T19:59:59;3.23;;;2.37;;
11000;SDS011;5553;48.506;8.870;2023-07-24T20:02:27;4.10;;;3.20;;
11000;SDS011;5553;48.506;8.870;2023-07-24T20:04:58;3.53;;;2.80;;
11000;SDS011;5553;48.506;8.870;2023-07-24T20:07:27;3.77;;;3.07;;
11000;SDS011;5553;48.506;8.870;2023-07-24T20:09:55;4.40;;;3.07;;
11000;SDS011;5553;48.506;8.870;2023-07-24T20:12:24;4.23;;;3.20;;
11000;SDS011;5553;48.506;8.870;2023-07-24T20:14:53;5.33;;;3.40;;
11000;SDS011;5553;48.506;8.870;2023-07-24T20:17:21;3.97;;;3.30;;
11000;SDS011;5553;48.506;8.870;2023-07-24T20:19:49;3.63;;;2.60;;
11000;SDS011;5553;48.506;8.870;2023-07-24T20:22:20;3.93;;;3.33;;
11000;SDS011;5553;48.506;8.870;2023-07-24T20:24:48;4.90;;;3.60;;
11000;SDS011;5553;48.506;8.870;2023-07-24T20:27:17;3.30;;;3.00;;
11000;SDS011;5553;48.506;8.870;2023-07-24T20:29:45;4.07;;;3.23;;
11000;SDS011;5553;48.506;8.870;2023-07-24T20:32:13;4.10;;;3.40;;
11000;SDS011;5553;48.506;8.870;2023-07-24T20:34:42;4.67;;;3.33;;
11000;SDS011;5553;48.506;8.870;2023-07-24T20:37:10;4.80;;;3.77;;
11000;SDS011;5553;48.506;8.870;2023-07-24T20:39:41;3.40;;;3.07;;
11000;SDS011;5553;48.506;8.870;2023-07-24T20:42:09;4.27;;;3.53;;